sensor_id;sensor_type;location;lat;lon;timestamp;temperature;humidity
16838;DHT22;19510;54.486;9.046;2024-01-15T00:01:45;3.30;99.90
16838;DHT22;19510;54.486;9.046;2024-01-15T00:04:10;3.40;99.90
16838;DHT22;19510;54.486;9.046;2024-01-15T00:06:36;3.50;99.90
16838;DHT22;19510;54.486;9.046;2024-01-15T00:09:02;3.60;99.90
16838;DHT22;19510;54.486;9.046;2024-01-15T00:11:27;3.70;99.90
16838;DHT22;19510;54.486;9.046;2024-01-15T00:13:53;3.70;99.90
16838;DHT22;19510;54.486;9.046;2024-01-15T00:16:21;3.70;99.90
16838;DHT22;19510;54.486;9.046;2024-01-15T00:18:49;3.60;99.90
16838;DHT22;19510;54.486;9.046;2024-01-15T00:21:15;3.60;99.90
16838;DHT22;19510;54.486;9.046;2024-01-15T00:23:44;3.50;99.90
16838;DHT22;19510;54.486;9.046;2024-01-15T00:26:12;3.50;99.90
16838;DHT22;19510;54.486;9.046;2024-01-15T00:28:38;3.50;99.90
16838;DHT22;19510;54.486;9.046;2024-01-15T00:31:05;3.60;99.90
16838;DHT22;19510;54.486;9.046;2024-01-15T00:33:30;3.50;99.90
16838;DHT22;19510;54.486;9.046;2024-01-15T00:35:56;3.60;99.90
16838;DHT22;19510;54.486;9.046;2024-01-15T00:38:22;3.40;99.90
16838;DHT22;19510;54.486;9.046;2024-01-15T00:40:48;3.50;99.90
16838;DHT22;19510;54.486;9.046;2024-01-15T00:43:17;3.50;99.90
16838;DHT22;19510;54.486;9.046;2024-01-15T00:45:44;3.30;99.90
16838;DHT22;19510;54.486;9.046;2024-01-15T00:48:10;3.40;99.90
16838;DHT22;19510;54.486;9.046;2024-01-15T00:50:36;3.50;99.90
16838;DHT22;19510;54.486;9.046;2024-01-15T00:53:01;3.60;99.90
16838;DHT22;19510;54.486;9.046;2024-01-15T00:55:28;3.60;99.90
16838;DHT22;19510;54.486;9.046;2024-01-15T00:57:54;3.70;99.90
16838;DHT22;19510;54.486;9.046;2024-01-15T01:00:20;3.70;99.90
16838;DHT22;19510;54.486;9.046;2024-01-15T01:02:46;3.70;99.90
16838;DHT22;19510;54.486;9.046;2024-01-15T01:05:12;3.70;99.90
16838;DHT22;19510;54.486;9.046;2024-01-15T01:07:38;3.70;99.90
16838;DHT22;19510;54.486;9.046;2024-01-15T01:10:04;3.70;99.90
16838;DHT22;19510;54.486;9.046;2024-01-15T01:12:29;3.70;99.90
16838;DHT22;19510;54.486;9.046;2024-01-15T01:14:55;3.60;99.90
16838;DHT22;19510;54.486;9.046;2024-01-15T01:17:22;3.60;99.90
16838;DHT22;19510;54.486;9.046;2024-01-15T01:19:49;3.60;99.90
16838;DHT22;19510;54.486;9.046;2024-01-15T01:22:15;3.50;99.90
16838;DHT22;19510;54.486;9.046;2024-01-15T01:24:40;3.50;99.90
16838;DHT22;19510;54.486;9.046;2024-01-15T01:27:06;3.60;99.90
16838;DHT22;19510;54.486;9.046;2024-01-15T01:29:31;3.50;99.90
16838;DHT22;19510;54.486;9.046;2024-01-15T01:31:57;3.60;99.90
16838;DHT22;19510;54.486;9.046;2024-01-15T01:34:23;3.60;99.90
16838;DHT22;19510;54.486;9.046;2024-01-15T01:36:48;3.70;99.90
16838;DHT22;19510;54.486;9.046;2024-01-15T01:39:17;3.80;99.90
16838;DHT22;19510;54.486;9.046;2024-01-15T01:41:42;3.80;99.90
16838;DHT22;19510;54.486;9.046;2024-01-15T01:44:08;3.80;99.90
16838;DHT22;19510;54.486;9.046;2024-01-15T01:46:35;3.80;99.90
16838;DHT22;19510;54.486;9.046;2024-01-15T01:49:05;3.80;99.90
16838;DHT22;19510;54.486;9.046;2024-01-15T01:51:32;3.40;99.90
16838;DHT22;19510;54.486;9.046;2024-01-15T01:53:58;3.20;99.90
16838;DHT22;19510;54.486;9.046;2024-01-15T01:56:24;3.00;99.90
16838;DHT22;19510;54.486;9.046;2024-01-15T01:58:49;3.00;99.90
16838;DHT22;19510;54.486;9.046;2024-01-15T02:01:16;3.00;99.90
16838;DHT22;19510;54.486;9.046;2024-01-15T02:03:42;3.00;99.90
16838;DHT22;19510;54.486;9.046;2024-01-15T02:06:10;3.00;99.90
16838;DHT22;19510;54.486;9.046;2024-01-15T02:11:54;3.10;99.90
16838;DHT22;19510;54.486;9.046;2024-01-15T02:14:20;3.20;99.90
16838;DHT22;19510;54.486;9.046;2024-01-15T02:16:45;3.10;99.90
16838;DHT22;19510;54.486;9.046;2024-01-15T02:19:18;3.20;99.90
16838;DHT22;19510;54.486;9.046;2024-01-15T02:21:46;3.10;99.90
16838;DHT22;19510;54.486;9.046;2024-01-15T02:24:15;3.10;99.90
16838;DHT22;19510;54.486;9.046;2024-01-15T02:26:40;3.20;99.90
16838;DHT22;19510;54.486;9.046;2024-01-15T02:29:09;3.20;99.90
16838;DHT22;19510;54.486;9.046;2024-01-15T02:31:39;3.30;99.90
16838;DHT22;19510;54.486;9.046;2024-01-15T02:34:05;3.30;99.90
16838;DHT22;19510;54.486;9.046;2024-01-15T02:36:30;3.40;99.90
16838;DHT22;19510;54.486;9.046;2024-01-15T02:38:56;3.50;99.90
16838;DHT22;19510;54.486;9.046;2024-01-15T02:41:22;3.60;99.90
16838;DHT22;19510;54.486;9.046;2024-01-15T02:43:47;3.70;99.90
16838;DHT22;19510;54.486;9.046;2024-01-15T02:46:13;3.70;99.90
16838;DHT22;19510;54.486;9.046;2024-01-15T02:48:39;3.80;99.90
16838;DHT22;19510;54.486;9.046;2024-01-15T02:51:04;3.90;99.90
16838;DHT22;19510;54.486;9.046;2024-01-15T02:53:30;3.90;99.90
16838;DHT22;19510;54.486;9.046;2024-01-15T02:55:56;3.90;99.90
16838;DHT22;19510;54.486;9.046;2024-01-15T02:58:22;4.00;99.90
16838;DHT22;19510;54.486;9.046;2024-01-15T03:00:47;4.00;99.90
16838;DHT22;19510;54.486;9.046;2024-01-15T03:03:13;4.00;99.90
16838;DHT22;19510;54.486;9.046;2024-01-15T03:05:39;4.00;99.90
16838;DHT22;19510;54.486;9.046;2024-01-15T03:08:04;3.90;99.90
16838;DHT22;19510;54.486;9.046;2024-01-15T03:10:30;3.90;99.90
16838;DHT22;19510;54.486;9.046;2024-01-15T03:12:57;3.90;99.90
16838;DHT22;19510;54.486;9.046;2024-01-15T03:15:22;3.80;99.90
16838;DHT22;19510;54.486;9.046;2024-01-15T03:17:48;3.80;99.90
16838;DHT22;19510;54.486;9.046;2024-01-15T03:20:14;3.80;99.90
16838;DHT22;19510;54.486;9.046;2024-01-15T03:22:39;3.80;99.90
16838;DHT22;19510;54.486;9.046;2024-01-15T03:25:06;3.70;99.90
16838;DHT22;19510;54.486;9.046;2024-01-15T03:27:32;3.70;99.90
16838;DHT22;19510;54.486;9.046;2024-01-15T03:29:58;3.80;99.90
16838;DHT22;19510;54.486;9.046;2024-01-15T03:32:26;3.70;99.90
16838;DHT22;19510;54.486;9.046;2024-01-15T03:34:52;3.70;99.90
16838;DHT22;19510;54.486;9.046;2024-01-15T03:37:18;3.70;99.90
16838;DHT22;19510;54.486;9.046;2024-01-15T03:39:44;3.70;99.90
16838;DHT22;19510;54.486;9.046;2024-01-15T03:42:09;3.60;99.90
16838;DHT22;19510;54.486;9.046;2024-01-15T03:44:35;3.60;99.90
16838;DHT22;19510;54.486;9.046;2024-01-15T03:47:00;3.60;99.90
16838;DHT22;19510;54.486;9.046;2024-01-15T03:49:26;3.60;99.90
16838;DHT22;19510;54.486;9.046;2024-01-15T03:51:52;3.70;99.90
16838;DHT22;19510;54.486;9.046;2024-01-15T03:54:17;3.60;99.90
16838;DHT22;19510;54.486;9.046;2024-01-15T03:56:43;3.70;99.90
16838;DHT22;19510;54.486;9.046;2024-01-15T03:59:09;3.70;99.90
16838;DHT22;19510;54.486;9.046;2024-01-15T04:01:34;3.70;99.90
16838;DHT22;19510;54.486;9.046;2024-01-15T04:04:00;3.70;99.90
16838;DHT22;19510;54.486;9.046;2024-01-15T04:06:26;3.60;99.90
16838;DHT22;19510;54.486;9.046;2024-01-15T04:08:51;3.70;99.90
16838;DHT22;19510;54.486;9.046;2024-01-15T04:11:17;3.60;99.90
16838;DHT22;19510;54.486;9.046;2024-01-15T04:13:43;3.70;99.90
16838;DHT22;19510;54.486;9.046;2024-01-15T04:16:08;3.60;99.90
16838;DHT22;19510;54.486;9.046;2024-01-15T04:18:34;3.70;99.90
16838;DHT22;19510;54.486;9.046;2024-01-15T04:21:00;3.60;99.90
16838;DHT22;19510;54.486;9.046;2024-01-15T04:23:25;3.60;99.90
16838;DHT22;19510;54.486;9.046;2024-01-15T04:25:51;3.70;99.90
16838;DHT22;19510;54.486;9.046;2024-01-15T04:28:16;3.70;99.90
16838;DHT22;19510;54.486;9.046;2024-01-15T04:30:42;3.70;99.90
16838;DHT22;19510;54.486;9.046;2024-01-15T04:33:08;3.70;99.90
16838;DHT22;19510;54.486;9.046;2024-01-15T04:35:37;3.80;99.90
16838;DHT22;19510;54.486;9.046;2024-01-15T04:38:03;3.80;99.90
16838;DHT22;19510;54.486;9.046;2024-01-15T04:40:29;3.80;99.90
16838;DHT22;19510;54.486;9.046;2024-01-15T04:42:54;3.80;99.90
16838;DHT22;19510;54.486;9.046;2024-01-15T04:45:20;3.80;99.90
16838;DHT22;19510;54.486;9.046;2024-01-15T04:47:48;3.70;99.90
16838;DHT22;19510;54.486;9.046;2024-01-15T04:50:17;3.70;99.90
16838;DHT22;19510;54.486;9.046;2024-01-15T04:52:42;3.60;99.90
16838;DHT22;19510;54.486;9.046;2024-01-15T04:55:08;3.60;99.90
16838;DHT22;19510;54.486;9.046;2024-01-15T04:57:34;3.60;99.90
16838;DHT22;19510;54.486;9.046;2024-01-15T05:00:00;3.60;99.90
16838;DHT22;19510;54.486;9.046;2024-01-15T05:02:25;3.60;99.90
16838;DHT22;19510;54.486;9.046;2024-01-15T05:04:51;3.50;99.90
16838;DHT22;19510;54.486;9.046;2024-01-15T05:07:16;3.40;99.90
16838;DHT22;19510;54.486;9.046;2024-01-15T05:09:42;3.50;99.90
16838;DHT22;19510;54.486;9.046;2024-01-15T05:12:08;3.50;99.90
16838;DHT22;19510;54.486;9.046;2024-01-15T05:14:33;3.50;99.90
16838;DHT22;19510;54.486;9.046;2024-01-15T05:16:59;3.50;99.90
16838;DHT22;19510;54.486;9.046;2024-01-15T05:19:25;3.40;99.90
16838;DHT22;19510;54.486;9.046;2024-01-15T05:21:50;3.40;99.90
16838;DHT22;19510;54.486;9.046;2024-01-15T05:24:19;3.50;99.90
16838;DHT22;19510;54.486;9.046;2024-01-15T05:26:44;3.50;99.90
16838;DHT22;19510;54.486;9.046;2024-01-15T05:29:10;3.50;99.90
16838;DHT22;19510;54.486;9.046;2024-01-15T05:31:38;3.50;99.90
16838;DHT22;19510;54.486;9.046;2024-01-15T05:37:26;3.50;99.90
16838;DHT22;19510;54.486;9.046;2024-01-15T05:39:51;3.50;99.90
16838;DHT22;19510;54.486;9.046;2024-01-15T05:42:17;3.40;99.90
16838;DHT22;19510;54.486;9.046;2024-01-15T05:44:43;3.40;99.90
16838;DHT22;19510;54.486;9.046;2024-01-15T05:47:08;3.40;99.90
16838;DHT22;19510;54.486;9.046;2024-01-15T05:49:34;3.30;99.90
16838;DHT22;19510;54.486;9.046;2024-01-15T05:51:59;3.40;99.90
16838;DHT22;19510;54.486;9.046;2024-01-15T05:54:25;3.40;99.90
16838;DHT22;19510;54.486;9.046;2024-01-15T05:56:51;3.30;99.90
16838;DHT22;19510;54.486;9.046;2024-01-15T05:59:16;3.40;99.90
16838;DHT22;19510;54.486;9.046;2024-01-15T06:01:42;3.40;99.90
16838;DHT22;19510;54.486;9.046;2024-01-15T06:04:08;3.40;99.90
16838;DHT22;19510;54.486;9.046;2024-01-15T06:06:33;3.40;99.90
16838;DHT22;19510;54.486;9.046;2024-01-15T06:09:04;3.40;99.90
16838;DHT22;19510;54.486;9.046;2024-01-15T06:11:34;3.50;99.90
16838;DHT22;19510;54.486;9.046;2024-01-15T06:14:03;3.50;99.90
16838;DHT22;19510;54.486;9.046;2024-01-15T06:16:29;3.50;99.90
16838;DHT22;19510;54.486;9.046;2024-01-15T06:18:55;3.50;99.90
16838;DHT22;19510;54.486;9.046;2024-01-15T06:21:20;3.40;99.90
16838;DHT22;19510;54.486;9.046;2024-01-15T06:23:46;3.50;99.90
16838;DHT22;19510;54.486;9.046;2024-01-15T06:26:12;3.40;99.90
16838;DHT22;19510;54.486;9.046;2024-01-15T06:28:38;3.30;99.90
16838;DHT22;19510;54.486;9.046;2024-01-15T06:31:03;3.30;99.90
16838;DHT22;19510;54.486;9.046;2024-01-15T06:33:31;3.30;99.90
16838;DHT22;19510;54.486;9.046;2024-01-15T06:35:56;3.30;99.90
16838;DHT22;19510;54.486;9.046;2024-01-15T06:38:22;3.20;99.90
16838;DHT22;19510;54.486;9.046;2024-01-15T06:40:48;3.20;99.90
16838;DHT22;19510;54.486;9.046;2024-01-15T06:43:17;3.20;99.90
16838;DHT22;19510;54.486;9.046;2024-01-15T06:45:47;3.20;99.90
16838;DHT22;19510;54.486;9.046;2024-01-15T06:48:13;3.20;99.90
16838;DHT22;19510;54.486;9.046;2024-01-15T06:50:44;3.20;99.90
16838;DHT22;19510;54.486;9.046;2024-01-15T06:53:10;3.20;99.90
16838;DHT22;19510;54.486;9.046;2024-01-15T06:55:35;3.20;99.90
16838;DHT22;19510;54.486;9.046;2024-01-15T06:58:01;3.20;99.90
16838;DHT22;19510;54.486;9.046;2024-01-15T07:00:27;3.20;99.90
16838;DHT22;19510;54.486;9.046;2024-01-15T07:02:53;3.20;99.90
16838;DHT22;19510;54.486;9.046;2024-01-15T07:05:20;3.10;99.90
16838;DHT22;19510;54.486;9.046;2024-01-15T07:07:46;3.20;99.90
16838;DHT22;19510;54.486;9.046;2024-01-15T07:10:13;3.10;99.90
16838;DHT22;19510;54.486;9.046;2024-01-15T07:12:41;3.10;99.90
16838;DHT22;19510;54.486;9.046;2024-01-15T07:15:07;3.10;99.90
16838;DHT22;19510;54.486;9.046;2024-01-15T07:17:33;3.10;99.90
16838;DHT22;19510;54.486;9.046;2024-01-15T07:19:59;3.00;99.90
16838;DHT22;19510;54.486;9.046;2024-01-15T07:22:25;3.00;99.90
16838;DHT22;19510;54.486;9.046;2024-01-15T07:24:53;3.00;99.90
16838;DHT22;19510;54.486;9.046;2024-01-15T07:27:20;3.00;99.90
16838;DHT22;19510;54.486;9.046;2024-01-15T07:29:45;2.90;99.90
16838;DHT22;19510;54.486;9.046;2024-01-15T07:32:11;2.90;99.90
16838;DHT22;19510;54.486;9.046;2024-01-15T07:34:37;3.00;99.90
16838;DHT22;19510;54.486;9.046;2024-01-15T07:37:06;2.90;99.90
16838;DHT22;19510;54.486;9.046;2024-01-15T07:39:32;2.90;99.90
16838;DHT22;19510;54.486;9.046;2024-01-15T07:41:58;2.90;99.90
16838;DHT22;19510;54.486;9.046;2024-01-15T07:44:23;2.80;99.90
16838;DHT22;19510;54.486;9.046;2024-01-15T07:46:49;3.00;99.90
16838;DHT22;19510;54.486;9.046;2024-01-15T07:49:16;2.90;99.90
16838;DHT22;19510;54.486;9.046;2024-01-15T07:51:42;2.80;99.90
16838;DHT22;19510;54.486;9.046;2024-01-15T07:54:09;2.80;99.90
16838;DHT22;19510;54.486;9.046;2024-01-15T07:56:52;2.90;99.90
16838;DHT22;19510;54.486;9.046;2024-01-15T07:59:18;3.00;99.90
16838;DHT22;19510;54.486;9.046;2024-01-15T08:01:43;2.90;99.90
16838;DHT22;19510;54.486;9.046;2024-01-15T08:04:09;3.00;99.90
16838;DHT22;19510;54.486;9.046;2024-01-15T08:06:40;3.00;99.90
16838;DHT22;19510;54.486;9.046;2024-01-15T08:09:06;3.10;99.90
16838;DHT22;19510;54.486;9.046;2024-01-15T08:11:31;3.20;99.90
16838;DHT22;19510;54.486;9.046;2024-01-15T08:13:57;3.20;99.90
16838;DHT22;19510;54.486;9.046;2024-01-15T08:16:23;3.20;99.90
16838;DHT22;19510;54.486;9.046;2024-01-15T08:18:51;3.20;99.90
16838;DHT22;19510;54.486;9.046;2024-01-15T08:21:16;3.10;99.90
16838;DHT22;19510;54.486;9.046;2024-01-15T08:23:42;3.10;99.90
16838;DHT22;19510;54.486;9.046;2024-01-15T08:26:08;3.10;99.90
16838;DHT22;19510;54.486;9.046;2024-01-15T08:28:34;3.10;99.90
16838;DHT22;19510;54.486;9.046;2024-01-15T08:31:02;3.10;99.90
16838;DHT22;19510;54.486;9.046;2024-01-15T08:33:29;3.00;99.90
16838;DHT22;19510;54.486;9.046;2024-01-15T08:35:54;3.00;99.90
16838;DHT22;19510;54.486;9.046;2024-01-15T08:38:20;3.00;99.90
16838;DHT22;19510;54.486;9.046;2024-01-15T08:40:46;2.90;99.90
16838;DHT22;19510;54.486;9.046;2024-01-15T08:43:12;3.00;99.90
16838;DHT22;19510;54.486;9.046;2024-01-15T08:45:38;3.00;99.90
16838;DHT22;19510;54.486;9.046;2024-01-15T08:48:04;2.90;99.90
16838;DHT22;19510;54.486;9.046;2024-01-15T08:50:30;2.90;99.90
16838;DHT22;19510;54.486;9.046;2024-01-15T08:52:57;2.90;99.90
16838;DHT22;19510;54.486;9.046;2024-01-15T08:55:25;2.90;99.90
16838;DHT22;19510;54.486;9.046;2024-01-15T08:57:51;2.80;99.90
16838;DHT22;19510;54.486;9.046;2024-01-15T09:00:20;2.80;99.90
16838;DHT22;19510;54.486;9.046;2024-01-15T09:02:45;2.80;99.90
16838;DHT22;19510;54.486;9.046;2024-01-15T09:05:11;2.80;99.90
16838;DHT22;19510;54.486;9.046;2024-01-15T09:07:37;2.90;99.90
16838;DHT22;19510;54.486;9.046;2024-01-15T09:10:02;2.90;99.90
16838;DHT22;19510;54.486;9.046;2024-01-15T09:12:28;2.90;99.90
16838;DHT22;19510;54.486;9.046;2024-01-15T09:14:57;2.90;99.90
16838;DHT22;19510;54.486;9.046;2024-01-15T09:17:22;2.90;99.90
16838;DHT22;19510;54.486;9.046;2024-01-15T09:19:49;2.90;99.90
16838;DHT22;19510;54.486;9.046;2024-01-15T09:22:15;2.80;99.90
16838;DHT22;19510;54.486;9.046;2024-01-15T09:24:44;2.80;99.90
16838;DHT22;19510;54.486;9.046;2024-01-15T09:27:10;2.80;99.90
16838;DHT22;19510;54.486;9.046;2024-01-15T09:29:39;2.80;99.90
16838;DHT22;19510;54.486;9.046;2024-01-15T09:32:07;2.80;99.90
16838;DHT22;19510;54.486;9.046;2024-01-15T09:34:36;2.80;99.90
16838;DHT22;19510;54.486;9.046;2024-01-15T09:37:02;2.70;99.90
16838;DHT22;19510;54.486;9.046;2024-01-15T09:39:29;2.80;99.90
16838;DHT22;19510;54.486;9.046;2024-01-15T09:41:56;2.80;99.90
16838;DHT22;19510;54.486;9.046;2024-01-15T09:44:23;2.90;99.90
16838;DHT22;19510;54.486;9.046;2024-01-15T09:46:49;2.80;99.90
16838;DHT22;19510;54.486;9.046;2024-01-15T09:49:16;2.80;99.90
16838;DHT22;19510;54.486;9.046;2024-01-15T09:51:43;2.80;99.90
16838;DHT22;19510;54.486;9.046;2024-01-15T09:54:08;2.80;99.90
16838;DHT22;19510;54.486;9.046;2024-01-15T09:56:34;2.80;99.90
16838;DHT22;19510;54.486;9.046;2024-01-15T09:59:01;2.80;99.90
16838;DHT22;19510;54.486;9.046;2024-01-15T10:01:28;2.80;99.90
16838;DHT22;19510;54.486;9.046;2024-01-15T10:03:54;2.90;99.90
16838;DHT22;19510;54.486;9.046;2024-01-15T10:06:21;2.80;99.90
16838;DHT22;19510;54.486;9.046;2024-01-15T10:08:51;2.70;99.90
16838;DHT22;19510;54.486;9.046;2024-01-15T10:11:17;2.70;99.90
16838;DHT22;19510;54.486;9.046;2024-01-15T10:13:45;2.70;99.90
16838;DHT22;19510;54.486;9.046;2024-01-15T10:16:11;2.70;99.90
16838;DHT22;19510;54.486;9.046;2024-01-15T10:18:37;2.60;99.90
16838;DHT22;19510;54.486;9.046;2024-01-15T10:21:06;2.70;99.90
16838;DHT22;19510;54.486;9.046;2024-01-15T10:23:35;2.70;99.90
16838;DHT22;19510;54.486;9.046;2024-01-15T10:26:02;2.60;99.90
16838;DHT22;19510;54.486;9.046;2024-01-15T10:28:28;2.60;99.90
16838;DHT22;19510;54.486;9.046;2024-01-15T10:30:59;2.50;99.90
16838;DHT22;19510;54.486;9.046;2024-01-15T10:33:25;2.60;99.90
16838;DHT22;19510;54.486;9.046;2024-01-15T10:35:54;2.50;99.90
16838;DHT22;19510;54.486;9.046;2024-01-15T10:38:23;2.50;99.90
16838;DHT22;19510;54.486;9.046;2024-01-15T10:40:55;2.50;99.90
16838;DHT22;19510;54.486;9.046;2024-01-15T10:43:22;2.60;99.90
16838;DHT22;19510;54.486;9.046;2024-01-15T10:45:49;2.40;99.90
16838;DHT22;19510;54.486;9.046;2024-01-15T10:48:17;2.50;99.90
16838;DHT22;19510;54.486;9.046;2024-01-15T10:50:46;2.40;99.90
16838;DHT22;19510;54.486;9.046;2024-01-15T10:53:16;2.40;99.90
16838;DHT22;19510;54.486;9.046;2024-01-15T10:55:42;2.30;99.90
16838;DHT22;19510;54.486;9.046;2024-01-15T10:58:11;2.30;99.90
16838;DHT22;19510;54.486;9.046;2024-01-15T11:00:38;2.30;99.90
16838;DHT22;19510;54.486;9.046;2024-01-15T11:03:05;2.20;99.90
16838;DHT22;19510;54.486;9.046;2024-01-15T11:05:44;2.30;99.90
16838;DHT22;19510;54.486;9.046;2024-01-15T11:08:10;2.40;99.90
16838;DHT22;19510;54.486;9.046;2024-01-15T11:16:01;2.40;99.90
16838;DHT22;19510;54.486;9.046;2024-01-15T11:18:29;2.50;99.90
16838;DHT22;19510;54.486;9.046;2024-01-15T11:23:43;2.70;99.90
16838;DHT22;19510;54.486;9.046;2024-01-15T11:28:58;2.80;99.90
16838;DHT22;19510;54.486;9.046;2024-01-15T11:34:11;3.00;99.90
16838;DHT22;19510;54.486;9.046;2024-01-15T11:42:03;3.20;99.90
16838;DHT22;19510;54.486;9.046;2024-01-15T11:44:29;3.30;99.90
16838;DHT22;19510;54.486;9.046;2024-01-15T11:47:06;3.30;99.90
16838;DHT22;19510;54.486;9.046;2024-01-15T11:52:18;3.40;99.90
16838;DHT22;19510;54.486;9.046;2024-01-15T11:57:50;3.40;99.90
16838;DHT22;19510;54.486;9.046;2024-01-15T12:00:18;3.50;99.90
16838;DHT22;19510;54.486;9.046;2024-01-15T12:02:46;3.50;99.90
16838;DHT22;19510;54.486;9.046;2024-01-15T12:05:13;3.50;99.90
16838;DHT22;19510;54.486;9.046;2024-01-15T12:07:40;3.60;99.90
16838;DHT22;19510;54.486;9.046;2024-01-15T12:10:17;3.70;99.90
16838;DHT22;19510;54.486;9.046;2024-01-15T12:15:31;3.80;99.90
16838;DHT22;19510;54.486;9.046;2024-01-15T12:17:58;3.80;99.90
16838;DHT22;19510;54.486;9.046;2024-01-15T12:20:25;3.90;99.90
16838;DHT22;19510;54.486;9.046;2024-01-15T12:22:51;3.90;99.90
16838;DHT22;19510;54.486;9.046;2024-01-15T12:25:16;3.80;99.90
16838;DHT22;19510;54.486;9.046;2024-01-15T12:27:42;3.80;99.90
16838;DHT22;19510;54.486;9.046;2024-01-15T12:30:11;3.80;99.90
16838;DHT22;19510;54.486;9.046;2024-01-15T12:32:37;3.80;99.90
16838;DHT22;19510;54.486;9.046;2024-01-15T12:35:03;3.80;99.90
16838;DHT22;19510;54.486;9.046;2024-01-15T12:37:30;3.80;99.90
16838;DHT22;19510;54.486;9.046;2024-01-15T12:39:55;3.80;99.90
16838;DHT22;19510;54.486;9.046;2024-01-15T12:42:24;3.80;99.90
16838;DHT22;19510;54.486;9.046;2024-01-15T12:44:50;3.80;99.90
16838;DHT22;19510;54.486;9.046;2024-01-15T12:47:15;3.80;99.90
16838;DHT22;19510;54.486;9.046;2024-01-15T12:49:47;3.80;99.90
16838;DHT22;19510;54.486;9.046;2024-01-15T12:52:15;3.80;99.90
16838;DHT22;19510;54.486;9.046;2024-01-15T12:54:44;3.80;99.90
16838;DHT22;19510;54.486;9.046;2024-01-15T12:57:09;3.80;99.90
16838;DHT22;19510;54.486;9.046;2024-01-15T12:59:35;3.70;99.90
16838;DHT22;19510;54.486;9.046;2024-01-15T13:02:03;3.80;99.90
16838;DHT22;19510;54.486;9.046;2024-01-15T13:04:31;3.70;99.90
16838;DHT22;19510;54.486;9.046;2024-01-15T13:06:57;3.70;99.90
16838;DHT22;19510;54.486;9.046;2024-01-15T13:09:22;3.70;99.90
16838;DHT22;19510;54.486;9.046;2024-01-15T13:11:48;3.50;99.90
16838;DHT22;19510;54.486;9.046;2024-01-15T13:14:14;3.60;99.90
16838;DHT22;19510;54.486;9.046;2024-01-15T13:16:43;3.60;99.90
16838;DHT22;19510;54.486;9.046;2024-01-15T13:19:09;3.60;99.90
16838;DHT22;19510;54.486;9.046;2024-01-15T13:21:37;3.60;99.90
16838;DHT22;19510;54.486;9.046;2024-01-15T13:24:03;3.70;99.90
16838;DHT22;19510;54.486;9.046;2024-01-15T13:26:34;3.80;99.90
16838;DHT22;19510;54.486;9.046;2024-01-15T13:29:04;3.90;99.90
16838;DHT22;19510;54.486;9.046;2024-01-15T13:31:30;3.90;99.90
16838;DHT22;19510;54.486;9.046;2024-01-15T13:33:56;3.90;99.90
16838;DHT22;19510;54.486;9.046;2024-01-15T13:36:31;3.80;99.90
16838;DHT22;19510;54.486;9.046;2024-01-15T13:38:56;3.70;99.90
16838;DHT22;19510;54.486;9.046;2024-01-15T13:41:24;3.60;99.90
16838;DHT22;19510;54.486;9.046;2024-01-15T13:43:55;3.60;99.90
16838;DHT22;19510;54.486;9.046;2024-01-15T13:46:25;3.50;99.90
16838;DHT22;19510;54.486;9.046;2024-01-15T13:48:54;3.40;99.90
16838;DHT22;19510;54.486;9.046;2024-01-15T13:51:22;3.50;99.90
16838;DHT22;19510;54.486;9.046;2024-01-15T13:53:49;3.40;99.90
16838;DHT22;19510;54.486;9.046;2024-01-15T13:56:15;3.30;99.90
16838;DHT22;19510;54.486;9.046;2024-01-15T13:58:41;3.30;99.90
16838;DHT22;19510;54.486;9.046;2024-01-15T14:01:09;3.30;99.90
16838;DHT22;19510;54.486;9.046;2024-01-15T14:03:41;3.30;99.90
16838;DHT22;19510;54.486;9.046;2024-01-15T14:06:08;3.20;99.90
16838;DHT22;19510;54.486;9.046;2024-01-15T14:08:37;3.10;99.90
16838;DHT22;19510;54.486;9.046;2024-01-15T14:11:04;3.00;99.90
16838;DHT22;19510;54.486;9.046;2024-01-15T14:13:31;2.90;99.90
16838;DHT22;19510;54.486;9.046;2024-01-15T14:16:00;3.00;99.90
16838;DHT22;19510;54.486;9.046;2024-01-15T14:18:26;2.80;99.90
16838;DHT22;19510;54.486;9.046;2024-01-15T14:20:52;2.80;99.90
16838;DHT22;19510;54.486;9.046;2024-01-15T14:23:19;2.80;99.90
16838;DHT22;19510;54.486;9.046;2024-01-15T14:25:45;2.80;99.90
16838;DHT22;19510;54.486;9.046;2024-01-15T14:28:12;2.70;99.90
16838;DHT22;19510;54.486;9.046;2024-01-15T14:30:38;2.70;99.90
16838;DHT22;19510;54.486;9.046;2024-01-15T14:33:03;2.80;99.90
16838;DHT22;19510;54.486;9.046;2024-01-15T14:35:29;2.70;99.90
16838;DHT22;19510;54.486;9.046;2024-01-15T14:37:55;2.70;99.90
16838;DHT22;19510;54.486;9.046;2024-01-15T14:40:20;2.70;99.90
16838;DHT22;19510;54.486;9.046;2024-01-15T14:42:46;2.60;99.90
16838;DHT22;19510;54.486;9.046;2024-01-15T14:45:12;2.60;99.90
16838;DHT22;19510;54.486;9.046;2024-01-15T14:47:38;2.50;99.90
16838;DHT22;19510;54.486;9.046;2024-01-15T14:50:06;2.60;99.90
16838;DHT22;19510;54.486;9.046;2024-01-15T14:52:32;2.60;99.90
16838;DHT22;19510;54.486;9.046;2024-01-15T14:54:59;2.60;99.90
16838;DHT22;19510;54.486;9.046;2024-01-15T14:57:25;2.70;99.90
16838;DHT22;19510;54.486;9.046;2024-01-15T14:59:50;2.70;99.90
16838;DHT22;19510;54.486;9.046;2024-01-15T15:02:16;2.70;99.90
16838;DHT22;19510;54.486;9.046;2024-01-15T15:04:43;2.70;99.90
16838;DHT22;19510;54.486;9.046;2024-01-15T15:07:09;2.80;99.90
16838;DHT22;19510;54.486;9.046;2024-01-15T15:09:36;2.70;99.90
16838;DHT22;19510;54.486;9.046;2024-01-15T15:12:03;2.70;99.90
16838;DHT22;19510;54.486;9.046;2024-01-15T15:14:30;2.70;99.90
16838;DHT22;19510;54.486;9.046;2024-01-15T15:16:57;2.70;99.90
16838;DHT22;19510;54.486;9.046;2024-01-15T15:19:23;2.70;99.90
16838;DHT22;19510;54.486;9.046;2024-01-15T15:21:48;2.70;99.90
16838;DHT22;19510;54.486;9.046;2024-01-15T15:24:14;2.70;99.90
16838;DHT22;19510;54.486;9.046;2024-01-15T15:26:42;2.80;99.90
16838;DHT22;19510;54.486;9.046;2024-01-15T15:29:08;2.70;99.90
16838;DHT22;19510;54.486;9.046;2024-01-15T15:31:34;2.80;99.90
16838;DHT22;19510;54.486;9.046;2024-01-15T15:34:00;2.70;99.90
16838;DHT22;19510;54.486;9.046;2024-01-15T15:36:25;2.70;99.90
16838;DHT22;19510;54.486;9.046;2024-01-15T15:38:51;2.60;99.90
16838;DHT22;19510;54.486;9.046;2024-01-15T15:41:17;2.60;99.90
16838;DHT22;19510;54.486;9.046;2024-01-15T15:43:42;2.70;99.90
16838;DHT22;19510;54.486;9.046;2024-01-15T15:46:08;2.60;99.90
16838;DHT22;19510;54.486;9.046;2024-01-15T15:48:33;2.50;99.90
16838;DHT22;19510;54.486;9.046;2024-01-15T15:50:59;2.50;99.90
16838;DHT22;19510;54.486;9.046;2024-01-15T15:53:25;2.60;99.90
16838;DHT22;19510;54.486;9.046;2024-01-15T15:55:56;2.40;99.90
16838;DHT22;19510;54.486;9.046;2024-01-15T15:58:23;2.40;99.90
16838;DHT22;19510;54.486;9.046;2024-01-15T16:00:49;2.50;99.90
16838;DHT22;19510;54.486;9.046;2024-01-15T16:03:14;2.50;99.90
16838;DHT22;19510;54.486;9.046;2024-01-15T16:05:40;2.50;99.90
16838;DHT22;19510;54.486;9.046;2024-01-15T16:08:06;2.40;99.90
16838;DHT22;19510;54.486;9.046;2024-01-15T16:10:38;2.40;99.90
16838;DHT22;19510;54.486;9.046;2024-01-15T16:13:18;2.30;99.90
16838;DHT22;19510;54.486;9.046;2024-01-15T16:16:02;2.30;99.90